Accueil
METAR-TAF:

METAR-TAF

Aéroports :

Mid-Carolina Regional Airport

Salisbury, Caroline du Nord, États-Unis

latitude: 35-39N, longitude: 080-31W, altitude: 236 m

Observation

Le bulletin a été fait il y a 7 minutes, à 20:35 UTC
Vent 5 kt de est
Température 28°C
Humidité 70%
Pression 1015 hPa
Visibilité: 16.1 km
Nuages épars à une hauteur de 3700 ft
Nuages fragmentés à une hauteur de 11000 ft

METAR: KRUQ 122035Z AUTO 10005KT 10SM SCT037 BKN110 28/22 A2998 RMK AO2 T02840220

Heure: 16:42 (20:42 UTC)


TAF: absent

Observations et prévisions météorologiques de plus de 4000 aéroports (messages METAR et TAF).

Les stations disponibles sont représentées par des disques jaunes et rouges sur la carte.

Passer la souris dessus pour voir le nom de la station.

Cliquer dessus pour voir les observations et prévisions météorologiques.

Pour changer de carte: cliquez sur les boutons verts avec une croix noire pour zoomer, sur le bouton vert avec un tiret pour effectuer un zoom arrière, ou sur les flèches vertes pour les cartes adjacentes.


METAR-TAF: